Time;durP1;ratioP1;P1;durP2;ratioP2;P2;SDS_P1;SDS_P2;PMS_P1;PMS_P2;Temp;Humidity;BMP_temperature;BMP_pressure;BME280_temperature;BME280_humidity;BME280_pressure;Samples;Min_cycle;Max_cycle;Signal;HPM_P1;HPM_P2
2020/12/14 00:02:18;;;;;;;57.27;36.23;;;6.30;99.90;;;;;;5074864;28;20491;-78
2020/12/14 00:04:44;;;;;;;63.20;38.60;;;6.30;99.90;;;;;;5093054;28;20722;-78
2020/12/14 00:07:10;;;;;;;70.82;42.67;;;6.40;99.90;;;;;;5093161;28;20383;-78
2020/12/14 00:09:36;;;;;;;79.70;44.53;;;6.30;99.90;;;;;;5074827;28;20862;-78
2020/12/14 00:12:03;;;;;;;96.05;50.95;;;6.30;99.90;;;;;;5093423;28;21083;-78
2020/12/14 00:14:29;;;;;;;83.30;46.90;;;6.30;99.90;;;;;;5092974;28;20866;-78
2020/12/14 00:16:55;;;;;;;78.35;46.40;;;6.30;99.90;;;;;;5074885;28;20381;-78
2020/12/14 00:19:21;;;;;;;76.18;43.97;;;6.40;99.90;;;;;;5092842;28;20540;-78
2020/12/14 00:21:51;;;;;;;66.10;38.15;;;6.40;99.90;;;;;;5075425;28;20369;-78
2020/12/14 00:24:17;;;;;;;70.30;42.33;;;6.40;99.90;;;;;;5074739;28;20365;-78
2020/12/14 00:26:43;;;;;;;66.03;41.07;;;6.30;99.90;;;;;;5074713;28;20935;-78
2020/12/14 00:29:09;;;;;;;76.20;45.63;;;6.30;99.90;;;;;;5092652;28;20436;-78
2020/12/14 00:31:35;;;;;;;62.57;39.23;;;6.40;99.90;;;;;;5093004;28;20365;-78
2020/12/14 00:34:00;;;;;;;59.30;38.63;;;6.30;99.90;;;;;;5092818;28;20384;-78
2020/12/14 00:36:26;;;;;;;53.93;35.50;;;6.30;99.90;;;;;;5092886;28;20518;-78
2020/12/14 00:38:52;;;;;;;51.73;35.70;;;6.30;99.90;;;;;;5092037;28;20485;-78
2020/12/14 00:41:20;;;;;;;52.17;34.57;;;6.30;99.90;;;;;;5092670;28;20427;-78
2020/12/14 00:43:47;;;;;;;47.63;32.83;;;6.30;99.90;;;;;;5074962;28;20711;-78
2020/12/14 00:46:15;;;;;;;57.95;35.95;;;6.30;99.90;;;;;;5092820;28;20372;-77
2020/12/14 00:48:41;;;;;;;49.10;35.08;;;6.30;99.90;;;;;;5092342;28;20396;-77
2020/12/14 00:51:07;;;;;;;62.08;38.35;;;6.30;99.90;;;;;;5073830;28;20849;-77
2020/12/14 00:53:34;;;;;;;59.92;39.22;;;6.30;99.90;;;;;;5092166;28;20372;-77
2020/12/14 00:56:04;;;;;;;58.25;38.28;;;6.40;99.90;;;;;;5073838;28;20430;-77
2020/12/14 00:58:31;;;;;;;61.30;38.88;;;6.30;99.90;;;;;;5092065;28;21231;-77
2020/12/14 01:00:57;;;;;;;60.88;40.63;;;6.30;99.90;;;;;;5092244;28;21020;-77
2020/12/14 01:03:23;;;;;;;206.88;50.55;;;6.30;99.90;;;;;;5092449;28;20372;-78
2020/12/14 01:05:53;;;;;;;63.65;40.03;;;6.30;99.90;;;;;;5074610;28;20727;-77
2020/12/14 01:08:21;;;;;;;62.70;39.47;;;6.40;99.90;;;;;;5092503;28;20368;-78
2020/12/14 01:10:50;;;;;;;62.95;39.60;;;6.30;99.90;;;;;;5092752;28;20377;-77
2020/12/14 01:13:16;;;;;;;68.13;41.53;;;6.30;99.90;;;;;;5092540;28;20375;-78
2020/12/14 01:15:42;;;;;;;67.10;40.88;;;6.30;99.90;;;;;;5092526;28;20716;-78
2020/12/14 01:18:09;;;;;;;68.93;43.33;;;6.30;99.90;;;;;;5092370;28;20811;-77
2020/12/14 01:20:38;;;;;;;62.22;38.35;;;6.30;99.90;;;;;;5074214;28;20369;-78
2020/12/14 01:23:04;;;;;;;62.05;37.88;;;6.30;99.90;;;;;;5092456;28;20356;-78
2020/12/14 01:25:29;;;;;;;70.00;41.15;;;6.30;99.90;;;;;;5092181;28;20360;-78
2020/12/14 01:27:55;;;;;;;60.50;36.38;;;6.30;99.90;;;;;;5092813;28;20369;-78
2020/12/14 01:30:21;;;;;;;59.30;37.08;;;6.30;99.90;;;;;;5092601;28;20441;-78
2020/12/14 01:32:47;;;;;;;56.33;35.97;;;6.30;99.90;;;;;;5092090;28;20369;-78
2020/12/14 01:35:13;;;;;;;57.22;35.50;;;6.30;99.90;;;;;;5091793;28;20387;-78
2020/12/14 01:37:38;;;;;;;58.50;35.65;;;6.30;99.90;;;;;;5074002;28;20368;-78
2020/12/14 01:40:05;;;;;;;59.45;36.75;;;6.30;99.90;;;;;;5092613;28;20499;-78
2020/12/14 01:42:30;;;;;;;57.27;34.67;;;6.30;99.90;;;;;;5092075;28;20371;-78
2020/12/14 01:44:57;;;;;;;58.93;35.47;;;6.30;99.90;;;;;;5092022;28;20369;-78
2020/12/14 01:47:30;;;;;;;58.00;35.15;;;6.30;99.90;;;;;;5073622;28;20384;-78
2020/12/14 01:49:57;;;;;;;60.83;36.00;;;6.30;99.90;;;;;;5073893;28;20368;-78
2020/12/14 01:52:24;;;;;;;57.28;35.33;;;6.30;99.90;;;;;;5096040;28;20372;-78
2020/12/14 01:54:52;;;;;;;59.78;36.58;;;6.30;99.90;;;;;;5095583;28;20831;-78
2020/12/14 01:57:18;;;;;;;60.40;37.25;;;6.30;99.90;;;;;;5095351;28;20376;-77
2020/12/14 01:59:44;;;;;;;57.97;35.67;;;6.30;99.90;;;;;;5095518;28;20392;-77
2020/12/14 02:02:10;;;;;;;50.92;32.47;;;6.30;99.90;;;;;;5094753;28;20394;-77
2020/12/14 02:04:36;;;;;;;49.78;31.48;;;6.30;99.90;;;;;;5095369;28;20364;-77
2020/12/14 02:07:02;;;;;;;150.90;40.45;;;6.30;99.90;;;;;;5095282;28;20356;-77
2020/12/14 02:09:28;;;;;;;44.13;29.20;;;6.30;99.90;;;;;;5095715;28;20373;-77
2020/12/14 02:11:54;;;;;;;50.30;31.67;;;6.30;99.90;;;;;;5095876;28;20378;-77
2020/12/14 02:14:20;;;;;;;48.00;30.67;;;6.30;99.90;;;;;;5077305;28;20372;-77
2020/12/14 02:16:46;;;;;;;45.83;29.83;;;6.30;99.90;;;;;;5077159;28;20460;-77
2020/12/14 02:19:11;;;;;;;46.97;30.20;;;6.30;99.90;;;;;;5095320;28;20445;-77
2020/12/14 02:21:37;;;;;;;45.30;29.88;;;6.30;99.90;;;;;;5095105;28;20363;-77
2020/12/14 02:24:14;;;;;;;50.85;31.70;;;6.30;99.90;;;;;;5095022;28;20364;-78
2020/12/14 02:26:40;;;;;;;52.30;33.35;;;6.20;99.90;;;;;;5095261;28;20426;-77
2020/12/14 02:29:06;;;;;;;55.03;33.13;;;6.20;99.90;;;;;;5095202;28;20361;-79
2020/12/14 02:31:31;;;;;;;49.20;31.42;;;6.30;99.90;;;;;;5077104;28;20451;-78
2020/12/14 02:33:57;;;;;;;50.17;32.33;;;6.30;99.90;;;;;;5095207;28;20869;-78
2020/12/14 02:36:24;;;;;;;50.17;31.38;;;6.30;99.90;;;;;;5095024;28;20447;-77
2020/12/14 02:38:51;;;;;;;50.13;31.38;;;6.30;99.90;;;;;;5095020;28;20766;-78
2020/12/14 02:41:17;;;;;;;45.72;29.60;;;6.30;99.90;;;;;;5094771;28;20357;-78
2020/12/14 02:43:43;;;;;;;44.83;29.50;;;6.20;99.90;;;;;;5094743;28;20364;-78
2020/12/14 02:46:09;;;;;;;49.00;30.70;;;6.20;99.90;;;;;;5095348;28;20360;-78
2020/12/14 02:48:35;;;;;;;48.65;31.15;;;6.20;99.90;;;;;;5094568;28;20368;-78
2020/12/14 02:51:00;;;;;;;50.10;30.95;;;6.20;99.90;;;;;;5094842;28;20513;-78
2020/12/14 02:53:26;;;;;;;55.35;31.80;;;6.30;99.90;;;;;;5076519;28;20401;-78
2020/12/14 02:55:52;;;;;;;44.70;30.63;;;6.30;99.90;;;;;;5094751;28;20926;-78
2020/12/14 02:58:18;;;;;;;45.67;30.13;;;6.20;99.90;;;;;;5095043;28;20395;-79
2020/12/14 03:00:43;;;;;;;49.15;30.63;;;6.20;99.90;;;;;;5094423;28;20693;-79
2020/12/14 03:03:09;;;;;;;57.75;35.90;;;6.20;99.90;;;;;;5093936;28;20367;-79
2020/12/14 03:05:35;;;;;;;59.95;38.55;;;6.20;99.90;;;;;;5094135;28;20361;-79
2020/12/14 03:08:01;;;;;;;65.70;39.70;;;6.20;99.90;;;;;;5094475;28;20794;-79
2020/12/14 03:10:27;;;;;;;61.10;36.83;;;6.20;99.90;;;;;;5094288;28;20375;-78
2020/12/14 03:12:52;;;;;;;61.40;37.83;;;6.30;99.90;;;;;;5094310;28;20846;-79
2020/12/14 03:15:18;;;;;;;56.40;35.45;;;6.20;99.90;;;;;;5094797;28;20400;-78
2020/12/14 03:17:44;;;;;;;54.90;35.33;;;6.20;99.90;;;;;;5093967;28;20348;-79
2020/12/14 03:20:10;;;;;;;54.27;34.47;;;6.20;99.90;;;;;;5075966;28;20388;-79
2020/12/14 03:22:36;;;;;;;54.40;34.13;;;6.20;99.90;;;;;;5076111;28;20411;-79
2020/12/14 03:25:02;;;;;;;59.13;36.30;;;6.20;99.90;;;;;;5094014;28;20360;-79
2020/12/14 03:27:28;;;;;;;54.53;33.83;;;6.20;99.90;;;;;;5093832;28;20368;-78
2020/12/14 03:29:54;;;;;;;66.22;36.17;;;6.20;99.90;;;;;;5093957;28;20497;-78
2020/12/14 03:32:20;;;;;;;56.78;34.72;;;6.20;99.90;;;;;;5075722;28;20383;-79
2020/12/14 03:34:46;;;;;;;57.42;37.08;;;6.20;99.90;;;;;;5093619;28;20389;-78
2020/12/14 03:37:11;;;;;;;51.03;32.60;;;6.20;99.90;;;;;;5075424;28;20373;-78
2020/12/14 03:39:37;;;;;;;49.22;30.90;;;6.20;99.90;;;;;;5093545;28;20894;-78
2020/12/14 03:42:03;;;;;;;45.30;30.10;;;6.20;99.90;;;;;;5093750;28;20363;-78
2020/12/14 03:44:29;;;;;;;51.53;32.65;;;6.20;99.90;;;;;;5093895;28;20377;-79
2020/12/14 03:46:54;;;;;;;76.03;33.60;;;6.20;99.90;;;;;;5093772;28;20357;-77
2020/12/14 03:49:20;;;;;;;49.58;31.40;;;6.20;99.90;;;;;;5093497;28;20373;-78
2020/12/14 03:51:46;;;;;;;53.30;33.42;;;6.20;99.90;;;;;;5093346;28;20364;-78
2020/12/14 03:54:12;;;;;;;54.17;33.40;;;6.10;99.90;;;;;;5093487;28;20371;-78
2020/12/14 03:56:37;;;;;;;48.22;30.05;;;6.10;99.90;;;;;;5093335;28;20372;-78
2020/12/14 03:59:03;;;;;;;49.90;31.65;;;6.10;99.90;;;;;;5093847;28;20898;-78
2020/12/14 04:01:30;;;;;;;51.25;33.03;;;6.10;99.90;;;;;;5093674;28;20361;-77
2020/12/14 04:03:56;;;;;;;51.30;33.23;;;6.10;99.90;;;;;;5093101;28;20761;-78
2020/12/14 04:06:26;;;;;;;48.25;32.03;;;6.10;99.90;;;;;;5093327;28;20360;-78
2020/12/14 04:08:53;;;;;;;47.17;30.23;;;6.10;99.90;;;;;;5093555;28;20712;-78
2020/12/14 04:11:19;;;;;;;48.40;31.60;;;6.10;99.90;;;;;;5075180;28;20399;-78
2020/12/14 04:13:48;;;;;;;47.95;30.95;;;6.10;99.90;;;;;;5092856;28;20368;-78
2020/12/14 04:16:14;;;;;;;46.85;29.33;;;6.10;99.90;;;;;;5074761;28;21198;-78
2020/12/14 04:18:40;;;;;;;51.20;30.13;;;6.10;99.90;;;;;;5075030;28;20416;-77
2020/12/14 04:21:07;;;;;;;41.70;27.60;;;6.10;99.90;;;;;;5093331;28;20363;-78
2020/12/14 04:23:34;;;;;;;44.95;29.13;;;6.10;99.90;;;;;;5092974;28;20360;-78
2020/12/14 04:25:59;;;;;;;44.75;29.17;;;6.10;99.90;;;;;;5075442;28;20360;-78
2020/12/14 04:28:25;;;;;;;41.67;27.70;;;6.10;99.90;;;;;;5074644;28;20375;-78
2020/12/14 04:30:51;;;;;;;39.08;26.38;;;6.10;99.90;;;;;;5092710;28;20723;-77
2020/12/14 04:33:17;;;;;;;42.78;26.17;;;6.10;99.90;;;;;;5074376;28;20392;-77
2020/12/14 04:35:43;;;;;;;32.87;22.23;;;6.10;99.90;;;;;;5092807;28;20360;-78
2020/12/14 04:38:09;;;;;;;29.50;21.47;;;6.10;99.90;;;;;;5092705;28;20460;-78
2020/12/14 04:40:34;;;;;;;32.63;23.07;;;6.10;99.90;;;;;;5092771;28;20402;-78
2020/12/14 04:43:00;;;;;;;38.97;26.43;;;6.10;99.90;;;;;;5074485;28;20356;-78
2020/12/14 04:45:29;;;;;;;37.63;26.13;;;6.10;99.90;;;;;;5092847;28;20835;-77
2020/12/14 04:47:57;;;;;;;42.83;30.85;;;6.10;99.90;;;;;;5092879;28;20407;-77
2020/12/14 04:50:24;;;;;;;55.47;31.00;;;6.10;99.90;;;;;;5092772;28;20788;-78
2020/12/14 04:52:50;;;;;;;54.75;38.83;;;6.10;99.90;;;;;;5092605;28;20373;-78
2020/12/14 04:55:22;;;;;;;44.47;32.10;;;6.10;99.90;;;;;;5092547;28;20369;-78
2020/12/14 04:57:48;;;;;;;34.13;25.40;;;6.10;99.90;;;;;;5093046;28;20391;-78
2020/12/14 05:00:16;;;;;;;34.28;24.95;;;6.10;99.90;;;;;;5074681;28;20380;-77
2020/12/14 05:02:42;;;;;;;31.77;24.55;;;6.10;99.90;;;;;;5074271;28;20407;-78
2020/12/14 05:05:12;;;;;;;34.10;26.00;;;6.10;99.90;;;;;;5092272;28;20369;-77
2020/12/14 05:07:43;;;;;;;34.20;25.15;;;6.10;99.90;;;;;;5092746;28;20418;-78
2020/12/14 05:10:11;;;;;;;35.53;27.05;;;6.00;99.90;;;;;;5074141;28;20436;-77
2020/12/14 05:12:42;;;;;;;58.65;37.67;;;6.00;99.90;;;;;;5092667;28;20461;-77
2020/12/14 05:15:15;;;;;;;89.55;66.57;;;6.00;99.90;;;;;;5092400;28;20439;-77
2020/12/14 05:17:41;;;;;;;196.85;144.65;;;6.00;99.90;;;;;;5074614;28;20371;-78
2020/12/14 05:20:16;;;;;;;93.53;75.47;;;6.00;99.90;;;;;;5092611;28;20763;-78
2020/12/14 05:23:03;;;;;;;217.95;144.13;;;6.00;99.90;;;;;;5092720;28;20354;-78
2020/12/14 05:25:29;;;;;;;171.95;112.57;;;6.00;99.90;;;;;;5093825;28;20366;-77
2020/12/14 05:28:07;;;;;;;130.60;97.00;;;6.00;99.90;;;;;;5096588;28;20723;-77
2020/12/14 05:30:45;;;;;;;105.97;78.75;;;6.00;99.90;;;;;;5096317;28;20359;-77
2020/12/14 05:33:12;;;;;;;153.73;124.35;;;6.00;99.90;;;;;;5095833;28;20368;-77
2020/12/14 05:35:43;;;;;;;95.10;73.85;;;5.90;99.90;;;;;;5096464;28;20819;-78
2020/12/14 05:38:15;;;;;;;126.75;84.50;;;6.00;99.90;;;;;;5096180;28;20367;-78
2020/12/14 05:40:42;;;;;;;164.10;112.28;;;6.00;99.90;;;;;;5096594;28;20356;-78
2020/12/14 05:43:17;;;;;;;95.88;67.55;;;6.00;99.90;;;;;;5096492;28;20443;-78
2020/12/14 05:45:44;;;;;;;113.45;84.28;;;6.00;99.90;;;;;;5077531;28;20376;-78
2020/12/14 05:48:26;;;;;;;101.55;86.53;;;6.00;99.90;;;;;;5077695;28;20368;-78
2020/12/14 05:51:04;;;;;;;132.82;101.20;;;6.00;99.90;;;;;;5078146;28;20368;-78
2020/12/14 05:53:34;;;;;;;88.03;62.58;;;6.00;99.90;;;;;;5095633;28;20367;-77
2020/12/14 05:56:01;;;;;;;107.57;77.65;;;6.00;99.90;;;;;;5078256;28;20377;-78
2020/12/14 05:58:30;;;;;;;67.13;46.30;;;5.90;99.90;;;;;;5095662;28;20481;-78
2020/12/14 06:00:56;;;;;;;93.20;71.72;;;5.90;99.90;;;;;;5095372;28;20719;-78
2020/12/14 06:03:24;;;;;;;73.65;58.03;;;5.90;99.90;;;;;;5077847;28;20383;-78
2020/12/14 06:05:58;;;;;;;62.20;48.17;;;5.90;99.90;;;;;;5077478;28;20364;-78
2020/12/14 06:08:45;;;;;;;81.13;60.17;;;5.90;99.90;;;;;;5095555;28;20382;-78
2020/12/14 06:11:16;;;;;;;43.47;34.83;;;5.90;99.90;;;;;;5095738;28;20375;-78
2020/12/14 06:13:58;;;;;;;54.33;42.53;;;5.90;99.90;;;;;;5095729;28;20368;-78
2020/12/14 06:16:34;;;;;;;48.25;37.50;;;5.90;99.90;;;;;;5077338;28;20409;-77
2020/12/14 06:19:00;;;;;;;42.95;33.40;;;5.90;99.90;;;;;;5095481;28;20778;-78
2020/12/14 06:21:35;;;;;;;53.88;43.75;;;5.90;99.90;;;;;;5076864;28;20376;-77
2020/12/14 06:24:05;;;;;;;58.30;49.20;;;5.90;99.90;;;;;;5095235;28;20364;-77
2020/12/14 06:26:35;;;;;;;55.92;45.15;;;5.90;99.90;;;;;;5094948;28;20365;-77
2020/12/14 06:29:01;;;;;;;70.88;44.38;;;5.90;99.90;;;;;;5076845;28;20372;-78
2020/12/14 06:31:38;;;;;;;67.60;52.20;;;5.90;99.90;;;;;;5095440;28;20736;-78
2020/12/14 06:34:24;;;;;;;88.93;62.20;;;5.90;99.90;;;;;;5094734;28;20388;-78
2020/12/14 06:36:50;;;;;;;119.75;78.03;;;5.90;99.90;;;;;;5093623;28;20372;-78
2020/12/14 06:39:37;;;;;;;117.13;76.07;;;5.90;99.90;;;;;;5076250;28;20396;-78
2020/12/14 06:42:09;;;;;;;115.57;74.32;;;5.90;99.90;;;;;;5094575;28;20360;-77
2020/12/14 06:44:55;;;;;;;133.95;82.38;;;5.90;99.90;;;;;;5094520;28;20443;-77
2020/12/14 06:47:21;;;;;;;103.00;66.35;;;5.90;99.90;;;;;;5084319;28;20373;-77
2020/12/14 06:49:47;;;;;;;143.90;81.20;;;5.90;99.90;;;;;;5076430;28;20464;-77
2020/12/14 06:52:33;;;;;;;118.35;69.15;;;5.90;99.90;;;;;;5094316;28;20456;-77
2020/12/14 06:54:59;;;;;;;68.05;45.90;;;5.90;99.90;;;;;;5076173;28;20445;-77
2020/12/14 06:57:37;;;;;;;78.28;54.78;;;5.90;99.90;;;;;;5094546;28;20372;-78
2020/12/14 07:00:05;;;;;;;150.75;102.88;;;5.90;99.90;;;;;;5094444;28;20399;-77
2020/12/14 07:02:41;;;;;;;102.85;76.38;;;5.90;99.90;;;;;;5076082;28;20433;-78
2020/12/14 07:05:28;;;;;;;192.63;110.72;;;5.80;99.90;;;;;;5076471;28;20854;-78
2020/12/14 07:07:55;;;;;;;245.27;168.50;;;5.90;99.90;;;;;;5075986;28;20412;-78
2020/12/14 07:10:28;;;;;;;279.40;196.70;;;5.90;99.90;;;;;;5076001;28;20380;-78
2020/12/14 07:12:54;;;;;;;213.07;151.57;;;5.90;99.90;;;;;;5094122;28;20387;-78
2020/12/14 07:15:46;;;;;;;210.13;135.98;;;5.90;99.90;;;;;;5075756;28;20368;-78
2020/12/14 07:18:15;;;;;;;190.90;137.88;;;5.90;99.90;;;;;;5090921;28;20893;-77
2020/12/14 07:20:57;;;;;;;141.53;101.20;;;5.90;99.90;;;;;;5075818;28;20421;-77
2020/12/14 07:23:25;;;;;;;137.70;98.78;;;5.90;99.90;;;;;;5094626;28;20372;-78
2020/12/14 07:25:54;;;;;;;165.53;117.03;;;5.90;99.90;;;;;;5093903;28;20963;-78
2020/12/14 07:28:34;;;;;;;116.22;80.82;;;6.00;99.90;;;;;;5094431;28;20371;-78
2020/12/14 07:31:07;;;;;;;120.03;82.63;;;5.90;99.90;;;;;;5094224;28;20406;-77
2020/12/14 07:33:33;;;;;;;169.07;94.15;;;6.00;99.90;;;;;;5093559;28;20411;-77
2020/12/14 07:36:18;;;;;;;105.93;64.18;;;6.00;99.90;;;;;;5075455;28;20460;-78
2020/12/14 07:38:55;;;;;;;94.05;64.53;;;6.00;99.90;;;;;;5093741;28;20537;-78
2020/12/14 07:41:21;;;;;;;128.85;77.10;;;6.00;99.90;;;;;;5094059;28;20364;-78
2020/12/14 07:43:55;;;;;;;130.27;77.82;;;6.00;99.90;;;;;;5093415;28;20363;-78
2020/12/14 07:46:33;;;;;;;239.18;110.45;;;6.00;99.90;;;;;;5093460;28;20396;-79
2020/12/14 07:49:10;;;;;;;256.83;111.30;;;6.00;99.90;;;;;;5092944;28;20831;-79
2020/12/14 07:51:37;;;;;;;209.63;98.83;;;6.00;99.90;;;;;;5075418;28;20383;-78
2020/12/14 07:54:14;;;;;;;107.95;67.95;;;6.00;99.90;;;;;;5093272;28;20827;-78
2020/12/14 07:57:00;;;;;;;132.63;84.27;;;6.00;99.90;;;;;;5093513;28;20716;-78
2020/12/14 07:59:27;;;;;;;172.02;100.45;;;6.10;99.90;;;;;;5093276;28;20392;-78
2020/12/14 08:01:54;;;;;;;156.95;94.47;;;6.00;99.90;;;;;;5093790;28;20357;-78
2020/12/14 08:04:24;;;;;;;110.57;75.78;;;6.00;99.90;;;;;;5093119;28;20376;-78
2020/12/14 08:06:51;;;;;;;151.50;86.07;;;6.00;99.90;;;;;;5074937;28;20440;-78
2020/12/14 08:09:19;;;;;;;79.67;54.03;;;6.00;99.90;;;;;;5075232;28;20858;-78
2020/12/14 08:11:47;;;;;;;72.68;54.00;;;6.00;99.90;;;;;;5093467;28;20372;-78
2020/12/14 08:14:17;;;;;;;65.25;48.67;;;6.00;99.90;;;;;;5093263;28;20912;-78
2020/12/14 08:16:45;;;;;;;177.43;104.55;;;6.00;99.90;;;;;;5074813;28;20850;-78
2020/12/14 08:19:20;;;;;;;108.22;72.13;;;6.00;99.90;;;;;;5092719;28;20399;-78
2020/12/14 08:22:08;;;;;;;77.95;55.90;;;6.00;99.90;;;;;;5074580;28;20783;-78
2020/12/14 08:24:38;;;;;;;72.43;55.22;;;6.00;99.90;;;;;;5092876;28;20392;-79
2020/12/14 08:27:11;;;;;;;96.18;63.08;;;6.10;99.90;;;;;;5074923;28;20705;-78
2020/12/14 08:30:00;;;;;;;188.45;120.15;;;6.10;99.90;;;;;;5092833;28;20399;-79
2020/12/14 08:32:26;;;;;;;235.43;151.10;;;6.10;99.90;;;;;;5074374;28;20368;-78
2020/12/14 08:34:52;;;;;;;293.40;177.20;;;6.10;99.90;;;;;;5092895;28;20475;-78
2020/12/14 08:37:19;;;;;;;283.60;177.70;;;6.10;99.90;;;;;;5074464;28;20863;-77
2020/12/14 08:40:01;;;;;;;72.35;48.90;;;6.10;99.90;;;;;;5092490;28;20396;-77
2020/12/14 08:42:30;;;;;;;195.45;125.15;;;6.10;99.90;;;;;;5092413;28;20359;-79
2020/12/14 08:45:11;;;;;;;152.77;100.95;;;6.10;99.90;;;;;;5092935;28;20357;-78
2020/12/14 08:47:38;;;;;;;143.87;98.57;;;6.00;99.90;;;;;;5092453;28;20811;-78
2020/12/14 08:50:09;;;;;;;94.30;64.53;;;6.00;99.90;;;;;;5092520;28;20368;-78
2020/12/14 08:52:35;;;;;;;127.05;85.93;;;6.00;99.90;;;;;;5092366;28;20452;-77
2020/12/14 08:55:02;;;;;;;152.18;110.03;;;6.00;99.90;;;;;;5074039;28;20375;-78
2020/12/14 08:57:30;;;;;;;142.73;104.20;;;6.00;99.90;;;;;;5092837;28;20357;-78
2020/12/14 09:00:12;;;;;;;101.07;71.47;;;6.00;99.90;;;;;;5092173;28;20384;-78
2020/12/14 09:02:39;;;;;;;90.83;68.27;;;6.00;99.90;;;;;;5078153;28;20961;-78
2020/12/14 09:05:19;;;;;;;96.88;66.40;;;6.00;99.90;;;;;;5078169;28;20447;-78
2020/12/14 09:07:46;;;;;;;102.93;69.95;;;6.00;99.90;;;;;;5096604;28;20391;-78
2020/12/14 09:10:22;;;;;;;79.10;58.43;;;6.10;99.90;;;;;;5078267;28;20376;-78
2020/12/14 09:12:49;;;;;;;84.82;62.78;;;6.00;99.90;;;;;;5078283;28;20474;-78
2020/12/14 09:15:15;;;;;;;71.33;48.00;;;6.10;99.90;;;;;;5096570;28;21117;-78
2020/12/14 09:17:42;;;;;;;118.57;59.13;;;6.00;99.90;;;;;;5095915;28;20413;-78
2020/12/14 09:20:09;;;;;;;85.88;53.00;;;6.10;99.90;;;;;;5095281;28;20822;-79
2020/12/14 09:22:36;;;;;;;120.07;69.63;;;6.00;99.90;;;;;;5095583;28;20375;-79
2020/12/14 09:25:05;;;;;;;144.13;88.40;;;6.00;99.90;;;;;;5077191;28;20452;-81
2020/12/14 09:27:30;;;;;;;152.07;97.78;;;6.00;99.90;;;;;;5095443;28;20431;-79
2020/12/14 09:29:56;;;;;;;261.15;171.38;;;6.00;99.90;;;;;;5095438;28;20364;-79
2020/12/14 09:32:22;;;;;;;171.77;119.28;;;6.00;99.90;;;;;;5077043;28;20516;-79
2020/12/14 09:34:48;;;;;;;135.90;89.35;;;6.00;99.90;;;;;;5095376;28;20415;-78
2020/12/14 09:37:14;;;;;;;98.45;61.33;;;6.10;99.90;;;;;;5094180;28;20473;-77
2020/12/14 09:39:41;;;;;;;106.30;69.00;;;6.00;99.90;;;;;;5095229;28;20396;-78
2020/12/14 09:42:07;;;;;;;102.38;62.40;;;6.00;99.90;;;;;;5092760;28;20371;-78
2020/12/14 09:44:33;;;;;;;122.35;75.68;;;6.00;99.90;;;;;;5095227;28;20839;-77
2020/12/14 09:47:04;;;;;;;177.10;111.60;;;6.00;99.90;;;;;;5094783;28;20366;-78
2020/12/14 09:49:30;;;;;;;164.60;106.93;;;6.00;99.90;;;;;;5094874;28;20440;-77
2020/12/14 09:51:56;;;;;;;170.27;116.05;;;6.00;99.90;;;;;;5094850;28;21374;-77
2020/12/14 09:54:22;;;;;;;160.35;119.18;;;6.00;99.90;;;;;;5095447;28;20368;-78
2020/12/14 09:56:48;;;;;;;167.88;127.55;;;6.00;99.90;;;;;;5076276;28;20474;-78
2020/12/14 09:59:14;;;;;;;242.30;191.30;;;6.10;99.90;;;;;;5094153;28;20392;-79
2020/12/14 10:01:40;;;;;;;194.82;140.05;;;6.10;99.90;;;;;;5076205;28;20373;-78
2020/12/14 10:04:06;;;;;;;212.77;160.27;;;6.10;99.90;;;;;;5076405;28;20369;-78
2020/12/14 10:06:31;;;;;;;213.70;130.83;;;6.10;99.90;;;;;;5095206;28;20388;-78
2020/12/14 10:08:57;;;;;;;116.93;78.70;;;6.20;99.90;;;;;;5077606;28;20376;-78
2020/12/14 10:11:28;;;;;;;157.23;115.30;;;6.10;99.90;;;;;;5076775;28;20513;-78
2020/12/14 10:13:54;;;;;;;77.78;55.58;;;6.10;99.90;;;;;;5095007;28;20372;-78
2020/12/14 10:16:21;;;;;;;129.38;92.25;;;6.10;99.90;;;;;;5095458;28;20403;-78
2020/12/14 10:18:47;;;;;;;88.05;67.05;;;6.10;99.90;;;;;;5095092;28;20931;-78
2020/12/14 10:21:14;;;;;;;95.55;69.47;;;6.10;99.90;;;;;;5095299;28;20361;-79
2020/12/14 10:23:40;;;;;;;87.13;62.03;;;6.10;99.90;;;;;;5095824;28;20813;-79
2020/12/14 10:26:08;;;;;;;79.45;55.80;;;6.20;99.90;;;;;;5076950;28;20460;-79
2020/12/14 10:28:35;;;;;;;80.45;52.38;;;6.20;99.90;;;;;;5076815;28;20376;-78
2020/12/14 10:31:00;;;;;;;104.07;67.82;;;6.10;99.90;;;;;;5095364;28;20912;-78
2020/12/14 10:33:29;;;;;;;132.85;89.93;;;6.20;99.90;;;;;;5094662;28;20392;-78
2020/12/14 10:35:55;;;;;;;158.10;103.23;;;6.10;99.90;;;;;;5094780;28;20422;-78
2020/12/14 10:38:21;;;;;;;141.60;93.30;;;6.20;99.90;;;;;;5093218;28;20387;-78
2020/12/14 10:40:46;;;;;;;125.95;84.18;;;6.20;99.90;;;;;;5075416;28;20376;-78
2020/12/14 10:43:12;;;;;;;68.95;48.35;;;6.20;99.90;;;;;;5094260;28;20376;-77
2020/12/14 10:45:39;;;;;;;83.95;58.72;;;6.20;99.90;;;;;;5094197;28;20455;-78
2020/12/14 10:48:05;;;;;;;134.73;90.75;;;6.20;99.90;;;;;;5094400;28;20360;-80
2020/12/14 10:50:31;;;;;;;112.70;82.95;;;6.20;99.90;;;;;;5094728;28;20422;-78
2020/12/14 10:52:56;;;;;;;144.75;104.47;;;6.20;99.90;;;;;;5094181;28;20400;-79
2020/12/14 10:55:24;;;;;;;154.88;107.90;;;6.30;99.90;;;;;;5094478;28;20765;-79
2020/12/14 10:57:50;;;;;;;140.43;95.75;;;6.30;99.90;;;;;;5075899;28;20376;-78
2020/12/14 11:00:19;;;;;;;93.18;67.22;;;6.30;99.90;;;;;;5093855;28;20426;-78
2020/12/14 11:02:44;;;;;;;104.80;75.20;;;6.30;99.90;;;;;;5094590;28;20453;-79
2020/12/14 11:05:11;;;;;;;101.38;71.32;;;6.30;99.90;;;;;;5093967;28;20443;-79
2020/12/14 11:07:37;;;;;;;93.32;68.00;;;6.30;99.90;;;;;;5094113;28;20364;-79
2020/12/14 11:10:08;;;;;;;81.80;61.78;;;6.30;99.90;;;;;;5075960;28;20417;-80
2020/12/14 11:12:34;;;;;;;70.43;52.30;;;6.30;99.90;;;;;;5094101;28;20398;-79
2020/12/14 11:15:00;;;;;;;76.32;53.20;;;6.30;99.90;;;;;;5093519;28;20850;-80
2020/12/14 11:17:26;;;;;;;76.07;55.73;;;6.30;99.90;;;;;;5093898;28;20360;-80
2020/12/14 11:19:52;;;;;;;69.57;50.95;;;6.30;99.90;;;;;;5093790;28;20386;-79
2020/12/14 11:22:18;;;;;;;67.78;49.30;;;6.30;99.90;;;;;;5093766;28;20418;-79
2020/12/14 11:24:44;;;;;;;80.25;60.10;;;6.30;99.90;;;;;;5092510;28;20361;-80
2020/12/14 11:27:10;;;;;;;91.37;66.27;;;6.30;99.90;;;;;;5093609;28;20755;-79
2020/12/14 11:29:36;;;;;;;90.43;65.15;;;6.30;99.90;;;;;;5093577;28;20364;-79
2020/12/14 11:32:02;;;;;;;106.03;72.65;;;6.40;99.90;;;;;;5093773;28;20786;-78
2020/12/14 11:34:28;;;;;;;74.15;52.00;;;6.40;99.90;;;;;;5093695;28;20475;-79
2020/12/14 11:36:53;;;;;;;86.05;61.90;;;6.40;99.90;;;;;;5093595;28;21129;-79
2020/12/14 11:39:20;;;;;;;90.72;62.92;;;6.40;99.90;;;;;;5093379;28;20396;-78
2020/12/14 11:41:49;;;;;;;95.85;61.58;;;6.40;99.90;;;;;;5093481;28;20450;-78
2020/12/14 11:44:16;;;;;;;155.48;87.43;;;6.40;99.90;;;;;;5075233;28;20372;-79
2020/12/14 11:46:43;;;;;;;121.40;78.18;;;6.30;99.90;;;;;;5093492;28;20368;-80
2020/12/14 11:49:08;;;;;;;113.32;76.65;;;6.30;99.90;;;;;;5093519;28;20368;-79
2020/12/14 11:51:37;;;;;;;100.05;70.30;;;6.30;99.90;;;;;;5093387;28;20365;-79
2020/12/14 11:54:04;;;;;;;83.15;58.90;;;6.30;99.90;;;;;;5093288;28;20424;-79
2020/12/14 11:56:30;;;;;;;80.45;58.30;;;6.30;99.90;;;;;;5093864;28;20406;-78
2020/12/14 11:58:56;;;;;;;63.95;47.65;;;6.30;99.90;;;;;;5074514;28;20416;-79
2020/12/14 12:01:23;;;;;;;59.85;44.92;;;6.30;99.90;;;;;;5092601;28;20368;-79
2020/12/14 12:03:50;;;;;;;60.70;43.33;;;6.30;99.90;;;;;;5091483;28;20397;-79
2020/12/14 12:06:16;;;;;;;61.33;42.47;;;6.30;99.90;;;;;;5092817;28;20397;-80
2020/12/14 12:08:42;;;;;;;72.30;47.58;;;6.30;99.90;;;;;;5092806;28;20371;-79
2020/12/14 12:11:11;;;;;;;74.50;46.57;;;6.30;99.90;;;;;;5092923;28;20380;-78
2020/12/14 12:13:37;;;;;;;80.72;50.35;;;6.30;99.90;;;;;;5092377;28;20384;-80
2020/12/14 12:16:05;;;;;;;83.43;56.33;;;6.30;99.90;;;;;;5093346;28;20421;-80
2020/12/14 12:18:31;;;;;;;155.80;108.03;;;6.30;99.90;;;;;;5092891;28;20357;-79
2020/12/14 12:20:57;;;;;;;81.13;55.90;;;6.30;99.90;;;;;;5074628;28;20731;-79
2020/12/14 12:23:23;;;;;;;138.67;89.03;;;6.30;99.90;;;;;;5074445;28;20380;-79
2020/12/14 12:25:49;;;;;;;193.57;115.23;;;6.30;99.90;;;;;;5074392;28;20920;-79
2020/12/14 12:28:14;;;;;;;196.60;105.23;;;6.30;99.90;;;;;;5092725;28;20361;-78
2020/12/14 12:30:40;;;;;;;184.03;100.60;;;6.40;99.90;;;;;;5093092;28;20360;-80
2020/12/14 12:33:06;;;;;;;201.07;112.73;;;6.40;99.90;;;;;;5092405;28;20360;-79
2020/12/14 12:35:32;;;;;;;148.57;88.70;;;6.30;99.90;;;;;;5092736;28;20364;-80
2020/12/14 12:37:58;;;;;;;147.65;91.72;;;6.30;99.90;;;;;;5073351;28;20373;-79